Time;durP1;ratioP1;P1;durP2;ratioP2;P2;SDS_P1;SDS_P2;PMS_P1;PMS_P2;Temp;Humidity;BMP_temperature;BMP_pressure;BME280_temperature;BME280_humidity;BME280_pressure;Samples;Min_cycle;Max_cycle;Signal;HPM_P1;HPM_P2
2021/04/10 00:01:07;;;;;;;15.40;14.30;;;12.10;80.50;;;;;;5132950;27;20445;-67
2021/04/10 00:03:33;;;;;;;15.40;13.97;;;12.00;80.50;;;;;;5132676;27;20471;-67
2021/04/10 00:06:00;;;;;;;14.53;13.37;;;12.10;80.80;;;;;;5132983;27;20539;-68
2021/04/10 00:08:26;;;;;;;15.97;14.27;;;12.10;80.60;;;;;;5133120;27;20499;-68
2021/04/10 00:10:53;;;;;;;15.93;14.30;;;12.10;81.80;;;;;;5133025;27;20444;-67
2021/04/10 00:13:20;;;;;;;16.90;15.13;;;12.00;82.40;;;;;;5133023;27;20441;-67
2021/04/10 00:15:46;;;;;;;14.40;13.40;;;11.90;82.50;;;;;;5132736;27;20832;-67
2021/04/10 00:18:12;;;;;;;15.20;14.20;;;11.90;82.50;;;;;;5132429;27;20484;-67
2021/04/10 00:20:38;;;;;;;16.23;14.60;;;11.90;83.50;;;;;;5130836;27;20488;-67
2021/04/10 00:23:05;;;;;;;16.50;15.43;;;11.90;83.10;;;;;;5132598;27;20460;-67
2021/04/10 00:25:31;;;;;;;16.00;14.80;;;11.90;83.40;;;;;;5132786;27;20444;-66
2021/04/10 00:27:58;;;;;;;17.53;16.23;;;11.90;84.60;;;;;;5132403;27;20455;-66
2021/04/10 00:30:24;;;;;;;17.27;15.80;;;11.70;85.80;;;;;;5132796;27;20458;-66
2021/04/10 00:32:51;;;;;;;16.87;15.17;;;11.70;85.50;;;;;;5132654;27;20459;-66
2021/04/10 00:35:17;;;;;;;17.40;15.77;;;11.60;85.80;;;;;;5132676;27;20458;-66
2021/04/10 00:37:43;;;;;;;15.77;14.37;;;11.60;85.60;;;;;;5132313;27;20449;-67
2021/04/10 00:40:11;;;;;;;14.07;13.37;;;11.60;86.20;;;;;;5132618;27;20468;-66
2021/04/10 00:42:38;;;;;;;13.73;12.70;;;11.50;86.10;;;;;;5132737;27;20487;-67
2021/04/10 00:45:08;;;;;;;14.40;12.97;;;11.50;86.10;;;;;;5132250;27;20452;-67
2021/04/10 00:47:34;;;;;;;17.00;15.40;;;11.60;86.80;;;;;;5132241;27;20449;-67
2021/04/10 00:50:01;;;;;;;17.10;15.80;;;11.60;87.50;;;;;;5132361;27;20448;-67
2021/04/10 00:52:28;;;;;;;18.73;17.33;;;11.50;88.20;;;;;;5132340;27;20955;-67
2021/04/10 00:54:55;;;;;;;16.87;15.47;;;11.60;88.20;;;;;;5132312;27;20460;-66
2021/04/10 00:57:22;;;;;;;16.17;14.63;;;11.70;88.00;;;;;;5132204;28;20805;-66
2021/04/10 00:59:48;;;;;;;16.43;14.70;;;11.70;87.60;;;;;;5131981;27;20476;-67
2021/04/10 01:02:16;;;;;;;21.20;15.70;;;11.80;87.00;;;;;;5132121;27;20452;-67
2021/04/10 01:04:42;;;;;;;16.40;15.03;;;11.80;87.00;;;;;;5132571;27;20451;-67
2021/04/10 01:07:09;;;;;;;16.90;15.57;;;11.90;86.60;;;;;;5132168;27;20534;-66
2021/04/10 01:09:35;;;;;;;16.33;15.13;;;11.90;86.70;;;;;;5131992;28;20436;-67
2021/04/10 01:12:18;;;;;;;16.77;15.43;;;12.00;85.50;;;;;;5132210;27;20455;-67
2021/04/10 01:14:51;;;;;;;15.17;13.90;;;12.00;86.20;;;;;;5131978;27;20448;-67
2021/04/10 01:17:25;;;;;;;13.97;13.13;;;12.00;85.60;;;;;;5132061;28;20475;-67
2021/04/10 01:20:05;;;;;;;15.40;14.17;;;12.10;83.60;;;;;;5131864;27;20503;-67
2021/04/10 01:22:58;;;;;;;14.67;13.67;;;12.20;83.10;;;;;;5132012;27;20935;-67
2021/04/10 01:25:30;;;;;;;14.50;13.53;;;12.20;83.50;;;;;;5132200;27;20444;-67
2021/04/10 01:27:58;;;;;;;13.87;12.87;;;12.20;83.40;;;;;;5131813;27;20475;-67
2021/04/10 01:30:29;;;;;;;16.53;12.53;;;12.30;82.60;;;;;;5135503;27;20448;-67
2021/04/10 01:33:07;;;;;;;14.30;13.23;;;12.40;81.10;;;;;;5136014;27;20448;-67
2021/04/10 01:35:37;;;;;;;13.13;12.37;;;12.50;81.10;;;;;;5135665;27;20440;-67
2021/04/10 01:38:08;;;;;;;12.60;11.40;;;12.60;80.10;;;;;;5135813;27;20983;-67
2021/04/10 01:40:36;;;;;;;11.23;10.60;;;12.70;79.80;;;;;;5135805;27;21003;-67
2021/04/10 01:43:03;;;;;;;12.23;11.57;;;12.80;77.80;;;;;;5135648;27;20500;-67
2021/04/10 01:45:31;;;;;;;11.90;11.17;;;12.90;78.00;;;;;;5135661;27;20516;-67
2021/04/10 01:48:02;;;;;;;11.07;10.37;;;13.00;77.50;;;;;;5135643;27;20470;-66
2021/04/10 01:50:28;;;;;;;11.73;11.13;;;12.90;77.90;;;;;;5135472;27;20456;-67
2021/04/10 01:52:56;;;;;;;11.73;11.13;;;13.00;77.00;;;;;;5135622;27;20463;-67
2021/04/10 01:55:23;;;;;;;13.30;12.50;;;13.00;77.00;;;;;;5135536;27;20471;-67
2021/04/10 01:57:51;;;;;;;11.10;10.60;;;13.10;76.90;;;;;;5135484;27;20444;-68
2021/04/10 02:00:20;;;;;;;11.50;10.53;;;13.10;76.60;;;;;;5135214;27;20479;-69
2021/04/10 02:02:47;;;;;;;11.20;10.60;;;13.20;76.40;;;;;;5135161;27;20956;-69
2021/04/10 02:05:16;;;;;;;12.00;11.10;;;13.10;76.80;;;;;;5135233;27;20440;-69
2021/04/10 02:07:44;;;;;;;11.77;11.17;;;13.20;76.40;;;;;;5135712;27;20459;-68
2021/04/10 02:10:14;;;;;;;10.20;9.70;;;13.20;77.20;;;;;;5135218;27;20817;-68
2021/04/10 02:12:42;;;;;;;10.83;10.20;;;13.20;76.00;;;;;;5135378;27;20451;-68
2021/04/10 02:15:11;;;;;;;11.80;11.10;;;13.30;75.80;;;;;;5134707;27;20448;-68
2021/04/10 02:17:38;;;;;;;10.20;9.60;;;13.20;76.50;;;;;;5135109;27;20463;-68
2021/04/10 02:20:10;;;;;;;11.80;11.00;;;13.30;76.20;;;;;;5134693;27;20491;-69
2021/04/10 02:22:37;;;;;;;11.60;10.90;;;13.30;76.00;;;;;;5134809;27;20480;-68
2021/04/10 02:25:04;;;;;;;11.40;10.83;;;13.20;76.10;;;;;;5134923;27;20445;-68
2021/04/10 02:27:30;;;;;;;11.57;11.07;;;13.20;76.10;;;;;;5134938;27;20448;-68
2021/04/10 02:29:58;;;;;;;12.30;11.50;;;13.20;75.80;;;;;;5135098;27;20441;-67
2021/04/10 02:32:28;;;;;;;10.77;10.13;;;13.30;76.00;;;;;;5136386;27;20455;-68
2021/04/10 02:35:02;;;;;;;11.00;10.30;;;13.20;76.20;;;;;;5135575;27;20943;-68
2021/04/10 02:37:31;;;;;;;10.70;10.03;;;13.20;76.20;;;;;;5134803;27;20439;-68
2021/04/10 02:39:58;;;;;;;11.17;10.57;;;13.20;76.30;;;;;;5134586;27;21018;-69
2021/04/10 02:42:27;;;;;;;10.30;9.77;;;13.20;76.50;;;;;;5135010;27;20811;-69
2021/04/10 02:44:54;;;;;;;10.50;10.00;;;13.20;76.90;;;;;;5134847;27;20467;-69
2021/04/10 02:47:24;;;;;;;10.07;9.67;;;13.10;77.10;;;;;;5134718;27;20441;-69
2021/04/10 02:49:53;;;;;;;11.23;10.40;;;13.20;77.00;;;;;;5134420;27;20956;-69
2021/04/10 02:52:27;;;;;;;10.33;9.73;;;13.10;77.50;;;;;;5134503;27;20453;-69
2021/04/10 02:54:56;;;;;;;10.40;10.00;;;13.20;77.40;;;;;;5134394;27;20452;-68
2021/04/10 02:57:25;;;;;;;10.27;9.77;;;13.10;77.30;;;;;;5134401;27;20805;-68
2021/04/10 02:59:54;;;;;;;11.00;10.40;;;13.10;77.00;;;;;;5134114;27;20485;-68
2021/04/10 03:02:21;;;;;;;10.57;9.63;;;13.10;77.60;;;;;;5134249;27;20444;-68
2021/04/10 03:04:49;;;;;;;10.83;10.20;;;13.10;77.30;;;;;;5134121;27;20444;-68
2021/04/10 03:07:16;;;;;;;11.30;10.90;;;13.20;77.60;;;;;;5134211;27;20463;-68
2021/04/10 03:09:44;;;;;;;11.87;10.80;;;13.20;77.40;;;;;;5134073;27;20444;-68
2021/04/10 03:12:12;;;;;;;10.50;9.80;;;13.20;77.90;;;;;;5134059;27;20451;-68
2021/04/10 03:14:40;;;;;;;10.37;9.80;;;13.10;77.80;;;;;;5133922;27;20501;-68
2021/04/10 03:17:08;;;;;;;10.47;9.97;;;13.20;77.80;;;;;;5133934;27;20469;-69
2021/04/10 03:19:38;;;;;;;9.93;9.53;;;13.20;77.80;;;;;;5133646;27;20499;-68
2021/04/10 03:22:04;;;;;;;9.70;9.20;;;13.20;78.00;;;;;;5133880;27;20452;-68
2021/04/10 03:24:30;;;;;;;10.47;9.97;;;13.30;78.00;;;;;;5133948;27;20453;-68
2021/04/10 03:26:56;;;;;;;9.83;9.27;;;13.20;77.90;;;;;;5134089;27;20444;-68
2021/04/10 03:29:24;;;;;;;10.90;10.10;;;13.20;78.00;;;;;;5133624;27;20515;-68
2021/04/10 03:31:52;;;;;;;10.10;9.60;;;13.20;78.10;;;;;;5133601;27;20436;-68
2021/04/10 03:34:19;;;;;;;10.10;9.70;;;13.20;78.30;;;;;;5133653;27;20632;-68
2021/04/10 03:36:45;;;;;;;11.53;10.70;;;13.30;78.10;;;;;;5133463;27;20456;-68
2021/04/10 03:39:12;;;;;;;11.30;10.70;;;13.30;78.50;;;;;;5133434;27;20936;-68
2021/04/10 03:41:38;;;;;;;11.20;10.77;;;13.20;78.70;;;;;;5133453;27;20456;-68
2021/04/10 03:44:05;;;;;;;11.30;10.67;;;13.20;78.90;;;;;;5133745;27;20467;-68
2021/04/10 03:46:35;;;;;;;10.43;10.03;;;13.30;79.00;;;;;;5133161;27;20440;-68
2021/04/10 03:49:02;;;;;;;10.30;9.90;;;13.30;79.10;;;;;;5133266;27;20448;-68
2021/04/10 03:51:28;;;;;;;10.60;10.13;;;13.40;79.30;;;;;;5133212;27;20453;-68
2021/04/10 03:53:54;;;;;;;10.43;9.93;;;13.50;79.20;;;;;;5133322;27;20451;-68
2021/04/10 03:56:20;;;;;;;10.90;10.33;;;13.40;79.20;;;;;;5133322;27;20448;-69
2021/04/10 03:58:47;;;;;;;11.13;10.53;;;13.40;79.50;;;;;;5132752;27;20880;-68
2021/04/10 04:01:13;;;;;;;10.20;9.70;;;13.40;79.70;;;;;;5133139;27;20484;-68
2021/04/10 04:03:40;;;;;;;10.37;9.97;;;13.30;79.90;;;;;;5133130;27;20827;-68
2021/04/10 04:06:06;;;;;;;10.23;9.73;;;13.50;80.10;;;;;;5132881;27;20449;-68
2021/04/10 04:08:33;;;;;;;10.30;9.90;;;13.40;80.30;;;;;;5132688;27;20447;-68
2021/04/10 04:10:59;;;;;;;10.30;9.80;;;13.40;80.20;;;;;;5133043;27;20452;-67
2021/04/10 04:13:25;;;;;;;10.07;9.67;;;13.50;80.50;;;;;;5131235;27;20444;-68
2021/04/10 04:15:51;;;;;;;10.60;9.90;;;13.30;81.40;;;;;;5121494;27;20891;-68
2021/04/10 04:18:17;;;;;;;10.50;10.00;;;13.40;82.00;;;;;;5119727;27;20533;-68
2021/04/10 04:20:44;;;;;;;11.17;10.67;;;13.40;81.40;;;;;;5120265;27;20500;-69
2021/04/10 04:23:11;;;;;;;10.70;10.10;;;13.40;81.70;;;;;;5121208;27;20448;-68
2021/04/10 04:25:37;;;;;;;10.40;10.00;;;13.40;82.20;;;;;;5122264;27;20786;-68
2021/04/10 04:28:04;;;;;;;12.00;11.43;;;13.40;82.40;;;;;;5119757;27;20442;-68
2021/04/10 04:30:30;;;;;;;10.60;10.00;;;13.40;82.80;;;;;;5120856;27;20448;-67
2021/04/10 04:32:56;;;;;;;10.53;10.10;;;13.40;83.30;;;;;;5122097;27;20862;-67
2021/04/10 04:35:22;;;;;;;10.70;10.30;;;13.40;83.80;;;;;;5119839;27;20438;-67
2021/04/10 04:37:49;;;;;;;11.00;10.60;;;13.30;84.20;;;;;;5120734;27;20444;-67
2021/04/10 04:40:16;;;;;;;10.60;10.10;;;13.30;84.40;;;;;;5121560;27;20488;-67
2021/04/10 04:42:42;;;;;;;10.43;10.00;;;13.20;85.00;;;;;;5119771;27;20434;-67
2021/04/10 04:45:09;;;;;;;10.63;10.23;;;13.20;85.20;;;;;;5120776;27;20443;-68
2021/04/10 04:47:35;;;;;;;10.37;9.87;;;13.10;85.40;;;;;;5121543;27;20453;-67
2021/04/10 04:50:01;;;;;;;10.57;10.17;;;13.20;85.70;;;;;;5119588;27;20429;-68
2021/04/10 04:52:29;;;;;;;11.03;10.43;;;13.20;85.90;;;;;;5120884;28;20456;-68
2021/04/10 04:54:56;;;;;;;10.80;10.30;;;13.20;85.50;;;;;;5124046;27;20451;-68
2021/04/10 04:57:22;;;;;;;11.13;10.60;;;13.30;85.30;;;;;;5129199;27;20448;-68
2021/04/10 04:59:48;;;;;;;11.00;10.50;;;13.20;85.00;;;;;;5131322;27;20487;-68
2021/04/10 05:02:14;;;;;;;12.27;11.57;;;13.20;85.40;;;;;;5132056;27;20444;-68
2021/04/10 05:04:41;;;;;;;11.10;10.40;;;13.20;85.10;;;;;;5134188;27;20448;-68
2021/04/10 05:07:07;;;;;;;10.67;10.10;;;13.20;84.90;;;;;;5136146;27;20501;-69
2021/04/10 05:09:33;;;;;;;10.20;9.63;;;13.10;85.80;;;;;;5135917;27;20820;-69
2021/04/10 05:12:00;;;;;;;11.00;10.50;;;13.00;86.40;;;;;;5136021;27;20452;-68
2021/04/10 05:14:26;;;;;;;10.40;9.80;;;12.90;86.80;;;;;;5136113;27;20456;-68
2021/04/10 05:16:52;;;;;;;10.07;9.67;;;12.70;89.50;;;;;;5135750;27;20468;-68
2021/04/10 05:19:18;;;;;;;10.50;10.10;;;12.60;90.90;;;;;;5135598;27;20498;-68
2021/04/10 05:21:45;;;;;;;10.10;9.70;;;12.40;92.60;;;;;;5136105;27;20497;-68
2021/04/10 05:24:11;;;;;;;10.90;10.10;;;12.20;94.00;;;;;;5135330;27;20443;-68
2021/04/10 05:26:37;;;;;;;10.03;9.53;;;12.00;95.00;;;;;;5137216;27;20444;-67
2021/04/10 05:29:04;;;;;;;9.97;9.53;;;11.90;96.20;;;;;;5136962;27;20447;-66
2021/04/10 05:31:31;;;;;;;10.07;9.67;;;11.80;96.90;;;;;;5126064;27;20437;-66
2021/04/10 05:33:57;;;;;;;10.83;10.33;;;11.90;97.00;;;;;;5123563;27;20903;-66
2021/04/10 05:36:23;;;;;;;9.83;9.43;;;11.90;97.20;;;;;;5125188;27;20436;-67
2021/04/10 05:38:50;;;;;;;10.70;10.20;;;12.00;97.40;;;;;;5123922;27;20441;-66
2021/04/10 05:41:17;;;;;;;10.50;10.10;;;12.10;97.20;;;;;;5123236;27;20532;-67
2021/04/10 05:43:43;;;;;;;10.53;10.13;;;12.10;96.50;;;;;;5125399;27;20516;-67
2021/04/10 05:46:10;;;;;;;10.27;9.67;;;12.20;96.70;;;;;;5124153;27;20441;-67
2021/04/10 05:48:37;;;;;;;10.37;10.07;;;12.20;96.40;;;;;;5123451;27;20818;-67
2021/04/10 05:51:03;;;;;;;10.10;9.40;;;12.20;96.10;;;;;;5124751;27;20509;-68
2021/04/10 05:53:30;;;;;;;9.93;9.60;;;12.20;96.00;;;;;;5122311;27;20449;-67
2021/04/10 05:55:56;;;;;;;10.37;9.77;;;12.20;95.50;;;;;;5114973;28;20471;-67
2021/04/10 05:58:22;;;;;;;10.33;9.83;;;12.30;95.20;;;;;;5114804;28;20910;-67
2021/04/10 06:00:49;;;;;;;9.80;9.30;;;12.20;95.30;;;;;;5114514;28;20496;-67
2021/04/10 06:03:16;;;;;;;10.17;9.57;;;12.30;95.10;;;;;;5115031;28;20514;-67
2021/04/10 06:05:44;;;;;;;10.10;9.50;;;12.30;95.10;;;;;;5132487;27;20448;-67
2021/04/10 06:08:10;;;;;;;9.40;9.00;;;12.30;94.20;;;;;;5135237;27;20502;-67
2021/04/10 06:10:37;;;;;;;11.47;10.67;;;12.30;94.40;;;;;;5135244;27;20455;-67
2021/04/10 06:13:03;;;;;;;10.30;9.90;;;12.50;94.30;;;;;;5135055;27;20443;-67
2021/04/10 06:15:29;;;;;;;10.10;9.70;;;12.50;94.10;;;;;;5134934;27;20487;-68
2021/04/10 06:17:55;;;;;;;9.93;9.30;;;12.50;93.90;;;;;;5134764;27;20527;-68
2021/04/10 06:20:23;;;;;;;9.80;9.40;;;12.50;93.80;;;;;;5134941;27;20536;-68
2021/04/10 06:22:49;;;;;;;8.97;8.57;;;12.60;93.60;;;;;;5135098;27;20501;-67
2021/04/10 06:25:15;;;;;;;8.90;8.50;;;12.70;93.50;;;;;;5134897;27;20444;-68
2021/04/10 06:27:41;;;;;;;11.07;10.57;;;12.60;93.70;;;;;;5135351;27;20489;-68
2021/04/10 06:30:09;;;;;;;10.20;9.63;;;12.60;93.70;;;;;;5134802;27;20476;-68
2021/04/10 06:32:36;;;;;;;9.20;8.80;;;12.50;93.80;;;;;;5134724;27;20448;-69
2021/04/10 06:35:03;;;;;;;10.90;10.30;;;12.50;93.90;;;;;;5134568;27;20706;-68
2021/04/10 06:37:30;;;;;;;10.87;10.37;;;12.60;94.00;;;;;;5125782;27;20478;-68
2021/04/10 06:39:57;;;;;;;9.53;9.20;;;12.50;93.80;;;;;;5117206;27;20481;-68
2021/04/10 06:42:23;;;;;;;9.87;9.27;;;12.40;94.00;;;;;;5133588;27;20448;-68
2021/04/10 06:44:50;;;;;;;7.60;7.27;;;12.40;94.20;;;;;;5130017;27;20436;-68
2021/04/10 06:47:21;;;;;;;9.40;9.10;;;12.40;94.60;;;;;;5114139;28;20824;-67
2021/04/10 06:49:49;;;;;;;9.73;9.10;;;12.50;94.30;;;;;;5113889;28;20485;-68
2021/04/10 06:52:16;;;;;;;9.23;8.83;;;12.50;94.60;;;;;;5113614;28;20463;-68
2021/04/10 06:54:48;;;;;;;9.70;9.30;;;12.50;94.30;;;;;;5129343;27;20489;-68
2021/04/10 06:57:16;;;;;;;9.67;9.27;;;12.60;94.40;;;;;;5134287;27;20452;-68
2021/04/10 06:59:47;;;;;;;9.33;8.93;;;12.70;94.40;;;;;;5134045;27;20480;-68
2021/04/10 07:02:15;;;;;;;10.00;9.60;;;12.70;94.40;;;;;;5134109;27;20453;-68
2021/04/10 07:04:42;;;;;;;10.07;9.37;;;12.70;94.50;;;;;;5124961;27;20456;-68
2021/04/10 07:07:09;;;;;;;8.70;8.33;;;12.80;94.30;;;;;;5113507;28;20472;-68
2021/04/10 07:09:37;;;;;;;9.53;8.90;;;12.70;94.50;;;;;;5113400;28;20449;-68
2021/04/10 07:12:06;;;;;;;10.40;9.90;;;12.70;94.70;;;;;;5131473;27;20947;-67
2021/04/10 07:14:33;;;;;;;10.77;9.97;;;12.60;96.10;;;;;;5133585;27;20448;-67
2021/04/10 07:16:59;;;;;;;10.70;10.03;;;12.30;97.70;;;;;;5133640;27;20472;-66
2021/04/10 07:19:26;;;;;;;12.40;11.80;;;12.10;98.90;;;;;;5133352;27;20486;-67
2021/04/10 07:22:07;;;;;;;13.23;12.50;;;12.00;99.90;;;;;;5133460;27;20452;-67
2021/04/10 07:24:37;;;;;;;13.50;12.90;;;11.80;99.90;;;;;;5133529;27;20473;-67
2021/04/10 07:27:06;;;;;;;13.20;12.70;;;11.80;99.90;;;;;;5132706;27;20504;-67
2021/04/10 07:29:34;;;;;;;11.80;11.40;;;11.80;99.90;;;;;;5133268;27;20448;-67
2021/04/10 07:32:01;;;;;;;11.03;10.53;;;11.80;99.90;;;;;;5133070;27;20448;-68
2021/04/10 07:34:28;;;;;;;10.33;9.93;;;11.80;99.90;;;;;;5133333;27;20502;-68
2021/04/10 07:36:56;;;;;;;10.37;9.70;;;11.90;99.90;;;;;;5133110;27;20444;-67
2021/04/10 07:39:22;;;;;;;10.23;9.60;;;12.00;99.90;;;;;;5133051;27;20982;-68
2021/04/10 07:41:59;;;;;;;9.50;8.70;;;12.00;99.90;;;;;;5133083;27;20451;-68
2021/04/10 07:44:37;;;;;;;10.00;9.57;;;12.20;99.50;;;;;;5129815;27;20437;-68
2021/04/10 07:47:05;;;;;;;10.10;9.60;;;12.50;99.20;;;;;;5112604;28;20526;-67
2021/04/10 07:49:32;;;;;;;9.13;8.50;;;12.60;98.90;;;;;;5112443;28;20445;-68
2021/04/10 07:52:01;;;;;;;8.60;8.30;;;12.80;98.90;;;;;;5112460;28;20510;-68
2021/04/10 07:54:29;;;;;;;9.47;9.07;;;12.90;98.80;;;;;;5112432;28;20944;-68
2021/04/10 07:56:57;;;;;;;9.20;8.80;;;12.80;97.70;;;;;;5112428;28;20506;-67
2021/04/10 07:59:24;;;;;;;9.30;8.80;;;12.80;97.40;;;;;;5111919;28;20445;-67
2021/04/10 08:01:51;;;;;;;9.70;9.20;;;12.90;97.40;;;;;;5112345;28;20449;-67
2021/04/10 08:04:19;;;;;;;9.60;9.00;;;12.90;97.60;;;;;;5112284;28;20453;-68
2021/04/10 08:06:56;;;;;;;8.63;8.23;;;12.90;97.50;;;;;;5112182;28;20552;-68
2021/04/10 08:09:34;;;;;;;8.50;8.20;;;12.80;97.40;;;;;;5112103;28;20445;-69
2021/04/10 08:12:01;;;;;;;9.10;8.70;;;12.60;97.80;;;;;;5112119;28;20460;-68
2021/04/10 08:14:40;;;;;;;12.03;11.43;;;12.60;98.50;;;;;;5111865;28;20974;-68
2021/04/10 08:17:08;;;;;;;13.13;12.50;;;12.40;99.90;;;;;;5111887;28;20518;-68
2021/04/10 08:19:35;;;;;;;14.33;13.70;;;12.30;99.90;;;;;;5111556;28;20534;-67
2021/04/10 08:22:02;;;;;;;14.53;14.03;;;12.00;99.90;;;;;;5111699;28;20865;-68
2021/04/10 08:24:34;;;;;;;16.70;15.80;;;11.90;99.90;;;;;;5112849;28;20453;-69
2021/04/10 08:27:03;;;;;;;16.00;15.40;;;11.80;99.90;;;;;;5113933;28;20570;-69
2021/04/10 08:29:30;;;;;;;14.50;13.97;;;11.70;99.90;;;;;;5129543;27;20509;-68
2021/04/10 08:31:57;;;;;;;14.67;14.07;;;11.70;99.90;;;;;;5131827;27;20448;-68
2021/04/10 08:34:26;;;;;;;13.70;13.20;;;11.60;99.90;;;;;;5131439;27;20509;-68
2021/04/10 08:36:54;;;;;;;12.70;12.30;;;11.60;99.90;;;;;;5131685;27;20444;-69
2021/04/10 08:39:25;;;;;;;12.13;11.53;;;11.70;99.90;;;;;;5129755;27;20448;-69
2021/04/10 08:41:55;;;;;;;10.37;9.90;;;11.80;99.90;;;;;;5132357;27;20469;-69
2021/04/10 08:44:24;;;;;;;10.50;9.97;;;12.00;99.90;;;;;;5132284;27;20847;-69
2021/04/10 08:46:52;;;;;;;10.50;9.70;;;12.10;99.90;;;;;;5132398;27;20481;-69
2021/04/10 08:49:19;;;;;;;10.17;9.77;;;12.30;99.90;;;;;;5132342;27;20466;-70
2021/04/10 08:51:50;;;;;;;9.87;9.33;;;12.60;99.90;;;;;;5132485;27;20444;-69
2021/04/10 08:54:18;;;;;;;9.30;8.90;;;12.80;99.90;;;;;;5132509;27;20451;-69
2021/04/10 08:56:48;;;;;;;9.50;9.10;;;12.80;99.90;;;;;;5132316;27;20935;-70
2021/04/10 08:59:16;;;;;;;8.73;8.43;;;13.00;99.90;;;;;;5132470;27;20959;-69
2021/04/10 09:01:44;;;;;;;9.93;9.43;;;13.20;99.90;;;;;;5132314;28;20484;-69
2021/04/10 09:04:11;;;;;;;9.73;9.33;;;13.30;99.90;;;;;;5132168;27;20448;-68
2021/04/10 09:06:49;;;;;;;9.70;9.40;;;13.10;99.90;;;;;;5132362;27;20440;-68
2021/04/10 09:09:27;;;;;;;9.60;9.20;;;13.00;99.40;;;;;;5132409;27;20444;-68
2021/04/10 09:12:21;;;;;;;10.47;10.07;;;13.10;99.50;;;;;;5132454;27;20484;-67
2021/04/10 09:14:49;;;;;;;9.47;9.07;;;13.10;99.50;;;;;;5132352;27;20564;-68
2021/04/10 09:17:16;;;;;;;9.87;9.47;;;13.30;99.10;;;;;;5132159;27;20979;-67
2021/04/10 09:19:42;;;;;;;9.47;9.17;;;13.40;98.90;;;;;;5132176;27;20476;-70
2021/04/10 09:22:16;;;;;;;9.13;8.73;;;13.50;98.00;;;;;;5132268;27;20936;-68
2021/04/10 09:24:44;;;;;;;9.30;8.77;;;13.50;98.00;;;;;;5132341;27;20823;-69
2021/04/10 09:27:20;;;;;;;10.23;9.83;;;13.50;98.00;;;;;;5132288;27;20445;-70
2021/04/10 09:29:53;;;;;;;10.27;9.87;;;13.40;98.00;;;;;;5132234;28;20455;-69
2021/04/10 09:32:33;;;;;;;8.77;8.40;;;13.50;98.10;;;;;;5118288;28;20862;-69
2021/04/10 09:35:00;;;;;;;9.60;9.00;;;13.40;97.60;;;;;;5111878;28;20533;-68
2021/04/10 09:37:50;;;;;;;8.67;8.23;;;13.40;97.60;;;;;;5124715;28;20448;-69
2021/04/10 09:40:20;;;;;;;8.60;8.30;;;13.50;97.50;;;;;;5132114;27;20479;-69
2021/04/10 09:42:48;;;;;;;8.77;8.27;;;13.30;97.40;;;;;;5132308;27;20452;-69
2021/04/10 09:45:18;;;;;;;8.03;7.73;;;13.20;97.80;;;;;;5132186;27;20966;-70
2021/04/10 09:48:31;;;;;;;8.50;8.20;;;13.20;97.40;;;;;;5132145;27;20455;-71
2021/04/10 09:51:13;;;;;;;8.20;7.90;;;13.20;97.60;;;;;;5134915;27;20432;-71
2021/04/10 09:53:48;;;;;;;9.40;8.90;;;13.30;97.40;;;;;;5135998;27;20487;-71
2021/04/10 09:56:15;;;;;;;9.50;9.20;;;13.40;97.50;;;;;;5135913;27;20450;-70
2021/04/10 09:58:53;;;;;;;8.87;8.37;;;13.30;97.50;;;;;;5135976;27;20452;-70
2021/04/10 10:01:22;;;;;;;8.83;8.40;;;13.40;97.20;;;;;;5135613;27;20523;-71
2021/04/10 10:03:50;;;;;;;8.40;8.00;;;13.60;97.10;;;;;;5135496;27;20456;-71
2021/04/10 10:06:19;;;;;;;9.80;9.40;;;13.80;96.50;;;;;;5135863;27;20492;-71
2021/04/10 10:08:46;;;;;;;9.60;9.10;;;13.80;96.50;;;;;;5135570;27;20928;-72
2021/04/10 10:11:13;;;;;;;9.07;8.60;;;13.80;96.40;;;;;;5135648;27;20449;-70
2021/04/10 10:13:40;;;;;;;9.20;8.80;;;13.90;96.30;;;;;;5131605;27;20971;-71
2021/04/10 10:16:08;;;;;;;8.97;8.47;;;13.90;95.80;;;;;;5135490;27;20461;-70
2021/04/10 10:18:35;;;;;;;8.80;8.50;;;13.80;96.00;;;;;;5135204;27;20480;-70
2021/04/10 10:21:06;;;;;;;9.60;9.20;;;14.00;95.70;;;;;;5135246;27;20476;-71
2021/04/10 10:23:34;;;;;;;9.70;9.20;;;14.00;95.50;;;;;;5135251;27;20459;-70
2021/04/10 10:26:08;;;;;;;9.87;9.30;;;14.00;95.30;;;;;;5135162;27;20845;-69
2021/04/10 10:28:36;;;;;;;9.83;9.33;;;13.90;95.20;;;;;;5135224;27;20451;-69
2021/04/10 10:31:08;;;;;;;9.70;9.20;;;13.80;95.00;;;;;;5135096;27;20449;-69
2021/04/10 10:33:34;;;;;;;8.90;8.60;;;13.90;95.10;;;;;;5135004;27;20452;-70
2021/04/10 10:36:02;;;;;;;9.10;8.63;;;13.90;94.70;;;;;;5134817;27;20444;-70
2021/04/10 10:38:32;;;;;;;10.00;9.03;;;14.00;94.90;;;;;;5135108;27;20455;-69
2021/04/10 10:40:59;;;;;;;9.87;9.17;;;14.10;94.70;;;;;;5134782;27;20486;-70
2021/04/10 10:43:26;;;;;;;8.40;8.00;;;14.20;94.90;;;;;;5134945;27;20444;-71
2021/04/10 10:45:54;;;;;;;9.50;9.20;;;14.30;94.40;;;;;;5134917;27;20448;-70
2021/04/10 10:48:24;;;;;;;9.67;9.07;;;14.10;94.80;;;;;;5134531;27;20501;-70
2021/04/10 10:50:51;;;;;;;9.50;9.10;;;14.30;94.40;;;;;;5134653;27;20444;-70
2021/04/10 10:53:19;;;;;;;9.70;9.20;;;14.40;94.00;;;;;;5134701;27;20444;-69
2021/04/10 10:55:56;;;;;;;9.20;8.90;;;14.60;93.50;;;;;;5134475;27;20449;-70
2021/04/10 10:58:23;;;;;;;8.93;8.53;;;14.40;93.20;;;;;;5134554;27;20833;-69
2021/04/10 11:00:51;;;;;;;8.57;8.27;;;14.50;93.30;;;;;;5133736;27;21052;-70
2021/04/10 11:03:21;;;;;;;8.80;8.47;;;14.60;93.30;;;;;;5133976;27;20467;-69
2021/04/10 11:05:48;;;;;;;9.40;9.10;;;15.00;92.70;;;;;;5134382;27;20947;-69
2021/04/10 11:08:16;;;;;;;9.50;9.20;;;15.20;92.10;;;;;;5130991;27;20556;-70
2021/04/10 11:10:43;;;;;;;9.70;9.30;;;15.20;91.80;;;;;;5113892;28;20442;-69
2021/04/10 11:13:11;;;;;;;9.60;9.23;;;15.40;91.40;;;;;;5113740;28;20494;-71
2021/04/10 11:15:38;;;;;;;9.67;9.37;;;15.60;91.10;;;;;;5113715;28;20470;-71
2021/04/10 11:18:06;;;;;;;9.47;9.07;;;15.80;90.80;;;;;;5113855;28;20845;-71
2021/04/10 11:20:34;;;;;;;10.90;10.43;;;16.10;90.20;;;;;;5113588;28;20513;-71
2021/04/10 11:23:05;;;;;;;9.60;9.20;;;16.40;89.50;;;;;;5118372;27;20449;-71
2021/04/10 11:25:47;;;;;;;10.20;9.77;;;16.50;89.00;;;;;;5121820;28;20480;-70
2021/04/10 11:28:27;;;;;;;10.60;10.00;;;17.80;85.40;;;;;;5115476;28;20472;-71
2021/04/10 11:31:06;;;;;;;9.87;9.37;;;18.40;82.20;;;;;;5113684;28;20445;-72
2021/04/10 11:33:34;;;;;;;10.27;9.77;;;18.60;80.30;;;;;;5113399;28;20545;-72
2021/04/10 11:36:01;;;;;;;10.90;10.40;;;18.80;79.30;;;;;;5113520;27;21010;-72
2021/04/10 11:38:28;;;;;;;9.80;9.50;;;20.10;77.30;;;;;;5123338;27;20460;-71
2021/04/10 11:40:54;;;;;;;10.10;9.70;;;20.90;72.50;;;;;;5113327;28;20477;-71
2021/04/10 11:43:21;;;;;;;9.97;9.67;;;20.60;71.70;;;;;;5112975;28;20446;-72
2021/04/10 11:45:49;;;;;;;10.57;10.17;;;20.60;71.70;;;;;;5113278;28;20502;-71
2021/04/10 11:48:17;;;;;;;10.23;9.80;;;20.20;68.90;;;;;;5113271;28;20445;-71
2021/04/10 11:50:52;;;;;;;10.10;9.43;;;19.70;70.10;;;;;;5113306;28;20438;-71
2021/04/10 11:53:22;;;;;;;9.90;9.60;;;19.30;70.50;;;;;;5113186;28;20498;-71
2021/04/10 11:55:50;;;;;;;11.00;10.70;;;19.00;70.50;;;;;;5113040;28;20460;-71
2021/04/10 11:58:31;;;;;;;10.30;9.90;;;18.60;72.10;;;;;;5112927;28;20445;-71
2021/04/10 12:01:05;;;;;;;9.40;9.00;;;18.70;71.30;;;;;;5112843;28;20516;-70
2021/04/10 12:03:31;;;;;;;9.10;8.80;;;18.40;71.80;;;;;;5112928;28;20453;-71
2021/04/10 12:05:58;;;;;;;9.17;8.87;;;18.20;72.80;;;;;;5112764;28;20475;-71
2021/04/10 12:08:25;;;;;;;10.03;9.40;;;18.30;72.80;;;;;;5116479;27;20526;-72
2021/04/10 12:10:54;;;;;;;9.37;9.03;;;18.60;72.20;;;;;;5130856;27;20445;-72
2021/04/10 12:13:21;;;;;;;9.20;8.90;;;18.80;71.30;;;;;;5111946;28;20468;-72
2021/04/10 12:15:52;;;;;;;10.00;9.70;;;18.90;71.70;;;;;;5120263;27;20517;-72
2021/04/10 12:18:19;;;;;;;10.10;9.70;;;19.00;70.80;;;;;;5132994;27;20455;-72
2021/04/10 12:20:46;;;;;;;9.90;9.50;;;19.40;69.70;;;;;;5133057;27;20480;-72
2021/04/10 12:23:14;;;;;;;9.70;9.40;;;19.60;68.00;;;;;;5133053;27;20448;-72
2021/04/10 12:25:41;;;;;;;10.17;9.77;;;20.20;67.30;;;;;;5113815;27;20445;-72
2021/04/10 12:28:07;;;;;;;10.17;9.87;;;20.80;66.00;;;;;;5112217;28;20941;-72
2021/04/10 12:30:34;;;;;;;9.97;9.67;;;21.90;63.30;;;;;;5112271;28;20870;-71
2021/04/10 12:33:01;;;;;;;10.30;10.00;;;22.80;60.50;;;;;;5112310;28;20445;-72
2021/04/10 12:35:27;;;;;;;10.43;10.13;;;22.20;58.30;;;;;;5112401;28;20969;-72
2021/04/10 12:37:54;;;;;;;10.00;9.70;;;20.50;60.80;;;;;;5126450;27;20452;-72
2021/04/10 12:40:27;;;;;;;9.50;9.17;;;19.80;62.70;;;;;;5132782;27;20713;-72
2021/04/10 12:42:53;;;;;;;9.67;9.37;;;19.40;65.00;;;;;;5130719;27;20505;-73